University, New York
Current Conditions -  °F | °C
As of 2:54 PM on Sunday 21 Dec 2014 (Local Time) from KSYR Reporting Station
Light Snow Light Snow  
Wind Chill: 31°   Ceiling: 2600
Heat Index: 31°   Visibility: 5mi
Dew Point: 26°   Wind: 0mph
Humidity: 82%   Direction: NA
Pressure: 30.3"   Gusts: NA
Location:  43.048°N, 76.1477°W
Report Text: KSYR 211954Z 00000KT 5SM -SN BKN026 OVC032 M01/M03 A3030 RMK AO2 SLP261 P0000 T10061033 $
Loading
Personal Weather Stations






























Interactive Weather Map New forecast layout! Learn more

10-Day Weather Forecast

Advertisements
Track Severe Weather on mobile